createdAt,value
2022-12-29T00:01:02.888Z,14.32
2022-12-29T00:03:30.240Z,23.42
2022-12-29T00:05:58.601Z,17.40
2022-12-29T00:08:40.594Z,18.67
2022-12-29T00:11:18.788Z,20.38
2022-12-29T00:14:04.539Z,16.48
2022-12-29T00:16:33.618Z,13.43
2022-12-29T00:19:03.850Z,17.13
2022-12-29T00:21:49.836Z,20.58
2022-12-29T00:24:28.180Z,16.08
2022-12-29T00:27:22.350Z,15.82
2022-12-29T00:30:10.908Z,14.65
2022-12-29T00:32:56.796Z,10.60
2022-12-29T00:35:30.743Z,10.00
2022-12-29T00:38:21.856Z,14.80
2022-12-29T00:41:07.552Z,8.27
2022-12-29T00:43:53.429Z,12.40
2022-12-29T00:46:20.532Z,8.25
2022-12-29T00:49:06.398Z,4.55
2022-12-29T00:51:33.935Z,13.90
2022-12-29T00:54:01.229Z,11.05
2022-12-29T00:56:28.611Z,13.02
2022-12-29T00:58:55.876Z,13.15
2022-12-29T01:01:23.285Z,12.77
2022-12-29T01:03:50.757Z,9.98
2022-12-29T01:06:18.007Z,10.32
2022-12-29T01:08:45.716Z,11.65
2022-12-29T01:11:14.330Z,15.23
2022-12-29T01:13:43.625Z,10.95
2022-12-29T01:16:10.960Z,11.95
2022-12-29T01:18:38.350Z,12.95
2022-12-29T01:21:07.656Z,13.98
2022-12-29T01:23:35.098Z,5.38
2022-12-29T01:26:16.851Z,15.30
2022-12-29T01:28:44.829Z,5.53
2022-12-29T01:31:15.031Z,13.85
2022-12-29T01:33:44.341Z,14.23
2022-12-29T01:36:17.262Z,7.03
2022-12-29T01:38:45.254Z,12.68
2022-12-29T01:41:15.838Z,15.13
2022-12-29T01:43:57.804Z,11.57
2022-12-29T01:46:32.614Z,7.63
2022-12-29T01:49:15.993Z,12.68
2022-12-29T01:51:59.579Z,13.55
2022-12-29T01:55:25.467Z,21.83
2022-12-29T01:57:56.868Z,29.55
2022-12-29T02:00:24.212Z,11.88
2022-12-29T02:02:54.997Z,27.65
2022-12-29T02:05:36.971Z,29.42
2022-12-29T02:08:04.250Z,19.55
2022-12-29T02:10:34.100Z,19.85
2022-12-29T02:13:01.209Z,21.90
2022-12-29T02:16:07.142Z,24.80
2022-12-29T02:18:53.104Z,21.80
2022-12-29T02:22:13.691Z,16.45
2022-12-29T02:24:49.472Z,26.10
2022-12-29T02:28:09.349Z,22.00
2022-12-29T02:31:01.735Z,21.38
2022-12-29T02:33:53.225Z,19.35
2022-12-29T02:37:11.991Z,12.48
2022-12-29T02:40:00.221Z,0.00
2022-12-29T02:43:01.257Z,0.00
2022-12-29T02:46:05.049Z,0.00
2022-12-29T02:48:57.191Z,0.03
2022-12-29T02:51:45.404Z,1.20
2022-12-29T02:54:31.157Z,0.30
2022-12-29T02:56:58.110Z,0.20
2022-12-29T02:59:25.230Z,0.20
2022-12-29T03:02:19.865Z,0.30
2022-12-29T03:05:22.443Z,0.10
2022-12-29T03:08:23.003Z,0.10
2022-12-29T03:11:02.172Z,0.20
2022-12-29T03:14:05.153Z,0.40
2022-12-29T03:16:53.613Z,16.50
2022-12-29T03:19:37.736Z,4.43
2022-12-29T03:22:30.929Z,9.68
2022-12-29T03:25:25.172Z,0.08
2022-12-29T03:27:57.403Z,0.20
2022-12-29T03:30:25.492Z,0.10
2022-12-29T03:32:58.024Z,0.13
2022-12-29T03:35:28.845Z,0.10
2022-12-29T03:38:25.041Z,0.60
2022-12-29T03:40:57.926Z,8.68
2022-12-29T03:43:25.823Z,10.65
2022-12-29T03:45:52.794Z,0.75
2022-12-29T03:48:19.770Z,25.73
2022-12-29T03:50:46.760Z,22.38
2022-12-29T03:53:13.861Z,23.77
2022-12-29T03:55:40.795Z,25.13
2022-12-29T03:58:07.760Z,13.63
2022-12-29T04:00:34.737Z,19.33
2022-12-29T04:03:01.899Z,15.70
2022-12-29T04:05:28.954Z,18.83
2022-12-29T04:07:55.992Z,16.42
2022-12-29T04:10:22.941Z,16.20
2022-12-29T04:12:49.920Z,6.30
2022-12-29T04:15:16.960Z,4.93
2022-12-29T04:17:45.388Z,8.38
2022-12-29T04:20:30.987Z,15.63
2022-12-29T04:23:05.884Z,24.95
2022-12-29T04:25:33.959Z,22.85
2022-12-29T04:28:01.713Z,27.55
2022-12-29T04:30:28.870Z,13.52
2022-12-29T04:32:55.868Z,11.50
2022-12-29T04:35:22.786Z,23.85
2022-12-29T04:37:49.720Z,11.07
2022-12-29T04:40:16.784Z,13.80
2022-12-29T04:42:43.681Z,12.93
2022-12-29T04:45:11.427Z,13.48
2022-12-29T04:47:38.563Z,14.25
2022-12-29T04:50:06.510Z,16.60
2022-12-29T04:52:33.686Z,11.25
2022-12-29T04:55:01.681Z,7.68
2022-12-29T04:57:28.701Z,7.72
2022-12-29T04:59:55.708Z,9.73
2022-12-29T05:02:22.860Z,15.05
2022-12-29T05:04:50.019Z,22.02
2022-12-29T05:07:16.987Z,20.73
2022-12-29T05:09:45.299Z,17.40
2022-12-29T05:12:12.255Z,19.20
2022-12-29T05:14:39.268Z,11.10
2022-12-29T05:17:06.210Z,7.38
2022-12-29T05:19:33.220Z,20.42
2022-12-29T05:22:00.496Z,20.55
2022-12-29T05:24:27.531Z,27.63
2022-12-29T05:26:54.444Z,19.55
2022-12-29T05:29:21.520Z,20.92
2022-12-29T05:31:48.562Z,20.77
2022-12-29T05:34:15.797Z,14.48
2022-12-29T05:36:42.774Z,13.38
2022-12-29T05:39:09.776Z,16.98
2022-12-29T05:41:36.727Z,27.60
2022-12-29T05:44:04.084Z,36.42
2022-12-29T05:46:31.476Z,17.65
2022-12-29T05:48:58.477Z,19.75
2022-12-29T05:51:25.447Z,20.77
2022-12-29T05:53:52.493Z,28.80
2022-12-29T05:56:19.537Z,24.63
2022-12-29T05:58:46.552Z,26.77
2022-12-29T06:01:13.694Z,26.67
2022-12-29T06:03:47.740Z,28.67
2022-12-29T06:06:15.065Z,32.55
2022-12-29T06:08:42.013Z,23.27
2022-12-29T06:11:09.209Z,54.00
2022-12-29T06:13:36.586Z,39.47
2022-12-29T06:16:03.836Z,42.08
2022-12-29T06:18:30.808Z,20.58
2022-12-29T06:21:03.033Z,30.63
2022-12-29T06:23:30.543Z,32.67
2022-12-29T06:25:58.480Z,29.17
2022-12-29T06:28:26.079Z,33.88
2022-12-29T06:30:53.093Z,30.20
2022-12-29T06:33:20.217Z,28.38
2022-12-29T06:35:47.516Z,14.05
2022-12-29T06:38:15.910Z,34.55
2022-12-29T06:40:46.237Z,20.10
2022-12-29T06:43:13.391Z,50.92
2022-12-29T06:45:41.341Z,32.10
2022-12-29T06:48:08.880Z,43.33
2022-12-29T06:50:36.013Z,32.92
2022-12-29T06:53:03.076Z,33.95
2022-12-29T06:55:30.229Z,40.22
2022-12-29T06:57:59.329Z,48.72
2022-12-29T07:00:26.735Z,24.88
2022-12-29T07:02:56.138Z,29.60
2022-12-29T07:05:23.262Z,24.88
2022-12-29T07:07:50.213Z,14.63
2022-12-29T07:10:17.279Z,24.95
2022-12-29T07:12:44.246Z,27.20
2022-12-29T07:15:11.591Z,26.63
2022-12-29T07:17:38.659Z,34.95
2022-12-29T07:20:07.191Z,31.20
2022-12-29T07:22:34.478Z,41.38
2022-12-29T07:25:01.585Z,20.98
2022-12-29T07:27:28.545Z,16.00
2022-12-29T07:29:55.742Z,33.63
2022-12-29T07:32:22.718Z,36.67
2022-12-29T07:34:49.660Z,26.08
2022-12-29T07:37:16.767Z,27.35
2022-12-29T07:39:44.728Z,12.45
2022-12-29T07:42:11.720Z,31.02
2022-12-29T07:44:38.768Z,32.38
2022-12-29T07:47:05.822Z,18.40
2022-12-29T07:49:32.873Z,23.50
2022-12-29T07:51:59.825Z,29.73
2022-12-29T07:54:26.866Z,20.13
2022-12-29T07:56:53.972Z,28.25
2022-12-29T07:59:21.119Z,26.27
2022-12-29T08:01:49.151Z,28.38
2022-12-29T08:04:16.345Z,24.83
2022-12-29T08:06:43.450Z,25.33
2022-12-29T08:09:15.068Z,41.58
2022-12-29T08:11:45.792Z,24.30
2022-12-29T08:14:12.795Z,21.25
2022-12-29T08:16:39.760Z,27.55
2022-12-29T08:19:06.854Z,23.48
2022-12-29T08:21:33.855Z,43.95
2022-12-29T08:24:01.089Z,23.88
2022-12-29T08:26:29.178Z,92.55
2022-12-29T08:28:56.840Z,48.92
2022-12-29T08:31:25.463Z,42.47
2022-12-29T08:33:52.686Z,67.43
2022-12-29T08:36:19.738Z,86.88
2022-12-29T08:38:46.767Z,87.38
2022-12-29T08:41:13.815Z,71.28
2022-12-29T08:43:46.884Z,70.72
2022-12-29T08:46:17.993Z,97.05
2022-12-29T08:48:45.451Z,91.72
2022-12-29T08:51:12.928Z,73.90
2022-12-29T08:53:40.014Z,46.92
2022-12-29T08:56:07.815Z,44.97
2022-12-29T08:58:34.810Z,19.90
2022-12-29T09:01:01.736Z,48.45
2022-12-29T09:04:04.503Z,40.08
2022-12-29T09:06:18.257Z,43.72
2022-12-29T09:08:54.690Z,52.85
2022-12-29T09:11:25.182Z,22.00
2022-12-29T09:13:53.545Z,34.33
2022-12-29T09:16:31.383Z,9.50
2022-12-29T09:18:59.355Z,32.22
2022-12-29T09:21:26.621Z,10.68
2022-12-29T09:23:53.947Z,12.50
2022-12-29T09:26:21.240Z,17.92
2022-12-29T09:31:30.667Z,40.60
2022-12-29T09:34:08.257Z,30.35
2022-12-29T09:36:37.015Z,25.63
2022-12-29T09:39:04.108Z,24.02
2022-12-29T09:41:57.275Z,22.30
2022-12-29T09:44:50.512Z,14.75
2022-12-29T09:47:20.255Z,14.07
2022-12-29T09:50:02.890Z,31.85
2022-12-29T09:52:48.779Z,13.23
2022-12-29T09:55:21.692Z,23.92
2022-12-29T09:58:07.123Z,96.28
2022-12-29T10:01:03.247Z,20.98
2022-12-29T10:03:48.460Z,32.85
2022-12-29T10:06:25.227Z,25.60
2022-12-29T10:09:10.386Z,28.30
2022-12-29T10:12:03.055Z,22.58
2022-12-29T10:15:09.728Z,16.55
2022-12-29T10:18:21.563Z,17.77
2022-12-29T10:21:36.922Z,9.10
2022-12-29T10:24:09.153Z,22.42
2022-12-29T10:26:47.049Z,12.20
2022-12-29T10:29:16.963Z,13.90
2022-12-29T10:32:07.901Z,19.05
2022-12-29T10:34:43.101Z,10.40
2022-12-29T10:37:27.530Z,17.05
2022-12-29T10:40:00.944Z,20.13
2022-12-29T10:42:53.362Z,12.90
2022-12-29T10:45:23.235Z,18.92
2022-12-29T10:48:05.463Z,23.45
2022-12-29T10:50:32.971Z,20.77
2022-12-29T10:53:06.073Z,15.57
2022-12-29T10:55:39.476Z,31.65
2022-12-29T10:58:12.611Z,28.70
2022-12-29T11:00:40.902Z,30.75
2022-12-29T11:04:01.052Z,15.65
2022-12-29T11:06:35.514Z,22.13
2022-12-29T11:09:32.460Z,20.15
2022-12-29T11:12:28.412Z,27.67
2022-12-29T11:15:15.927Z,17.45
2022-12-29T11:17:48.853Z,70.70
2022-12-29T11:20:39.691Z,46.15
2022-12-29T11:23:32.372Z,31.35
2022-12-29T11:26:18.844Z,77.80
2022-12-29T11:29:05.176Z,37.40
2022-12-29T11:31:32.295Z,51.00
2022-12-29T11:33:59.276Z,38.58
2022-12-29T11:36:26.408Z,31.52
2022-12-29T11:38:56.529Z,45.55
2022-12-29T11:41:31.465Z,32.80
2022-12-29T11:44:03.971Z,38.88
2022-12-29T11:46:36.187Z,21.50
2022-12-29T11:49:05.236Z,29.70
2022-12-29T11:51:47.676Z,61.03
2022-12-29T11:54:27.404Z,38.05
2022-12-29T11:56:56.093Z,48.40
2022-12-29T11:59:59.700Z,26.70
2022-12-29T12:03:04.024Z,34.47
2022-12-29T12:05:55.010Z,50.05
2022-12-29T12:08:54.393Z,77.13
2022-12-29T12:11:34.310Z,59.65
2022-12-29T12:14:34.836Z,49.10
2022-12-29T12:17:16.190Z,61.47
2022-12-29T12:20:14.005Z,49.20
2022-12-29T12:22:50.573Z,71.22
2022-12-29T12:25:27.214Z,62.05
2022-12-29T12:28:42.005Z,80.60
2022-12-29T12:31:46.702Z,65.82
2022-12-29T12:34:27.609Z,53.70
2022-12-29T12:37:29.887Z,63.30
2022-12-29T12:40:37.944Z,61.63
2022-12-29T12:43:14.570Z,65.25
2022-12-29T12:46:16.518Z,49.55
2022-12-29T12:49:08.509Z,51.28
2022-12-29T12:52:02.903Z,40.65
2022-12-29T12:55:19.997Z,49.97
2022-12-29T12:58:20.146Z,34.55
2022-12-29T13:00:50.621Z,34.22
2022-12-29T13:03:46.080Z,32.08
2022-12-29T13:06:32.396Z,60.92
2022-12-29T13:09:46.722Z,35.15
2022-12-29T13:12:44.601Z,44.17
2022-12-29T13:15:52.306Z,37.25
2022-12-29T13:19:14.789Z,36.15
2022-12-29T13:22:05.985Z,29.83
2022-12-29T13:24:57.607Z,34.05
2022-12-29T13:28:14.375Z,61.55
2022-12-29T13:31:07.274Z,27.27
2022-12-29T13:34:01.345Z,31.73
2022-12-29T13:36:46.674Z,31.40
2022-12-29T13:39:31.915Z,28.23
2022-12-29T13:42:00.272Z,35.17
2022-12-29T13:44:36.928Z,43.97
2022-12-29T13:48:11.816Z,39.45
2022-12-29T13:50:43.870Z,47.03
2022-12-29T13:53:18.055Z,48.88
2022-12-29T13:56:10.300Z,33.05
2022-12-29T13:59:15.057Z,29.20
2022-12-29T14:02:05.109Z,38.00
2022-12-29T14:04:37.280Z,36.47
2022-12-29T14:07:17.107Z,37.63
2022-12-29T14:12:45.700Z,48.85
2022-12-29T14:15:13.030Z,32.28
2022-12-29T14:17:44.233Z,48.97
2022-12-29T14:20:39.131Z,50.65
2022-12-29T14:23:12.917Z,28.20
2022-12-29T14:26:34.918Z,26.23
2022-12-29T14:29:32.031Z,29.15
2022-12-29T14:32:00.025Z,34.28
2022-12-29T14:34:32.929Z,11.38
2022-12-29T14:39:45.854Z,57.35
2022-12-29T14:42:18.533Z,19.00
2022-12-29T14:45:00.660Z,35.40
2022-12-29T14:47:42.306Z,30.48
2022-12-29T14:50:16.467Z,30.50
2022-12-29T14:53:05.202Z,17.55
2022-12-29T14:55:58.314Z,28.50
2022-12-29T14:58:55.656Z,24.23
2022-12-29T15:01:44.829Z,18.80
2022-12-29T15:04:36.734Z,19.23
2022-12-29T15:07:10.375Z,21.58
2022-12-29T15:09:50.384Z,20.38
2022-12-29T15:12:41.946Z,30.02
2022-12-29T15:15:27.714Z,20.02
2022-12-29T15:17:56.495Z,24.23
2022-12-29T15:20:31.195Z,17.98
2022-12-29T15:23:04.438Z,13.00
2022-12-29T15:25:32.573Z,14.00
2022-12-29T15:28:06.468Z,39.53
2022-12-29T15:30:33.794Z,14.77
2022-12-29T15:33:01.006Z,25.02
2022-12-29T15:35:39.739Z,17.15
2022-12-29T15:38:30.365Z,18.92
2022-12-29T15:41:08.854Z,17.20
2022-12-29T15:43:59.172Z,19.23
2022-12-29T15:46:32.264Z,12.85
2022-12-29T15:48:59.770Z,16.23
2022-12-29T15:51:32.523Z,28.80
2022-12-29T15:53:59.803Z,35.75
2022-12-29T15:56:30.958Z,19.77
2022-12-29T15:58:58.145Z,19.98
2022-12-29T16:01:32.729Z,17.70
2022-12-29T16:04:04.469Z,25.35
2022-12-29T16:06:40.365Z,23.08
2022-12-29T16:09:36.285Z,53.58
2022-12-29T16:12:35.179Z,23.10
2022-12-29T16:15:13.802Z,14.07
2022-12-29T16:17:54.277Z,26.60
2022-12-29T16:20:41.254Z,20.98
2022-12-29T16:23:22.611Z,17.80
2022-12-29T16:25:49.812Z,13.88
2022-12-29T16:28:37.393Z,18.15
2022-12-29T16:31:19.587Z,28.33
2022-12-29T16:33:52.043Z,23.17
2022-12-29T16:36:56.933Z,17.67
2022-12-29T16:39:35.813Z,29.10
2022-12-29T16:42:36.259Z,26.38
2022-12-29T16:45:25.365Z,27.00
2022-12-29T16:48:07.649Z,38.72
2022-12-29T16:50:37.960Z,28.38
2022-12-29T16:53:06.926Z,29.63
2022-12-29T16:55:34.139Z,32.90
2022-12-29T16:58:01.585Z,35.67
2022-12-29T17:00:35.746Z,34.92
2022-12-29T17:03:04.530Z,12.27
2022-12-29T17:05:31.617Z,20.75
2022-12-29T17:08:02.007Z,35.33
2022-12-29T17:10:48.356Z,20.73
2022-12-29T17:13:15.489Z,18.30
2022-12-29T17:15:42.632Z,30.80
2022-12-29T17:18:14.143Z,21.35
2022-12-29T17:20:42.251Z,27.02
2022-12-29T17:23:21.153Z,28.73
2022-12-29T17:25:54.841Z,19.58
2022-12-29T17:28:28.771Z,17.00
2022-12-29T17:31:02.451Z,15.40
2022-12-29T17:33:39.089Z,17.30
2022-12-29T17:36:06.464Z,18.73
2022-12-29T17:38:37.681Z,19.67
2022-12-29T17:41:04.943Z,19.42
2022-12-29T17:43:36.685Z,22.10
2022-12-29T17:46:08.122Z,21.15
2022-12-29T17:48:35.602Z,25.73
2022-12-29T17:51:02.770Z,17.50
2022-12-29T17:53:31.327Z,19.25
2022-12-29T17:55:58.328Z,19.48
2022-12-29T17:58:29.042Z,19.88
2022-12-29T18:00:59.871Z,16.17
2022-12-29T18:03:34.656Z,43.30
2022-12-29T18:06:05.228Z,31.23
2022-12-29T18:08:34.868Z,34.85
2022-12-29T18:11:02.422Z,13.38
2022-12-29T18:13:43.993Z,29.38
2022-12-29T18:16:14.019Z,41.65
2022-12-29T18:18:41.394Z,33.25
2022-12-29T18:21:18.007Z,24.20
2022-12-29T18:23:45.626Z,32.10
2022-12-29T18:26:25.643Z,29.55
2022-12-29T18:28:56.382Z,17.08
2022-12-29T18:31:27.354Z,25.05
2022-12-29T18:33:57.327Z,35.40
2022-12-29T18:36:25.027Z,57.42
2022-12-29T18:38:54.696Z,31.08
2022-12-29T18:41:31.206Z,37.53
2022-12-29T18:43:59.754Z,32.95
2022-12-29T18:46:27.045Z,26.88
2022-12-29T18:48:54.666Z,33.35
2022-12-29T18:51:26.135Z,20.48
2022-12-29T18:53:54.474Z,22.02
2022-12-29T18:56:23.102Z,25.15
2022-12-29T18:58:51.696Z,28.50
2022-12-29T19:01:25.489Z,13.23
2022-12-29T19:03:52.803Z,23.27
2022-12-29T19:06:21.513Z,18.08
2022-12-29T19:08:48.793Z,14.40
2022-12-29T19:11:16.198Z,29.75
2022-12-29T19:13:43.182Z,30.02
2022-12-29T19:16:19.717Z,19.63
2022-12-29T19:18:58.271Z,31.10
2022-12-29T19:21:34.146Z,31.42
2022-12-29T19:24:01.099Z,29.27
2022-12-29T19:26:36.593Z,41.03
2022-12-29T19:29:06.461Z,61.78
2022-12-29T19:31:34.038Z,35.65
2022-12-29T19:34:03.222Z,13.38
2022-12-29T19:36:32.745Z,19.67
2022-12-29T19:39:00.213Z,17.45
2022-12-29T19:41:27.311Z,35.00
2022-12-29T19:43:54.569Z,22.95
2022-12-29T19:46:23.515Z,23.27
2022-12-29T19:48:51.806Z,29.23
2022-12-29T19:51:20.418Z,32.88
2022-12-29T19:53:48.059Z,26.02
2022-12-29T19:56:15.497Z,34.17
2022-12-29T19:58:47.259Z,44.75
2022-12-29T20:01:22.465Z,33.40
2022-12-29T20:03:50.507Z,19.63
2022-12-29T20:06:18.797Z,26.67
2022-12-29T20:08:45.869Z,22.65
2022-12-29T20:11:17.095Z,19.55
2022-12-29T20:13:50.599Z,19.35
2022-12-29T20:16:20.229Z,21.38
2022-12-29T20:18:48.732Z,25.58
2022-12-29T20:21:22.378Z,19.33
2022-12-29T20:23:51.874Z,16.50
2022-12-29T20:26:23.965Z,24.13
2022-12-29T20:28:52.436Z,17.73
2022-12-29T20:31:42.597Z,12.82
2022-12-29T20:34:09.887Z,23.50
2022-12-29T20:36:41.138Z,17.13
2022-12-29T20:39:12.810Z,21.02
2022-12-29T20:41:39.801Z,17.88
2022-12-29T20:44:07.090Z,27.95
2022-12-29T20:46:41.198Z,19.52
2022-12-29T20:49:10.709Z,23.85
2022-12-29T20:52:04.409Z,22.10
2022-12-29T20:54:25.056Z,17.63
2022-12-29T20:56:52.579Z,20.02
2022-12-29T20:59:28.461Z,17.88
2022-12-29T21:01:57.067Z,20.27
2022-12-29T21:04:24.262Z,22.45
2022-12-29T21:06:51.248Z,17.75
2022-12-29T21:09:18.307Z,20.45
2022-12-29T21:11:46.572Z,14.75
2022-12-29T21:14:13.853Z,24.27
2022-12-29T21:16:40.961Z,30.40
2022-12-29T21:19:08.072Z,24.83
2022-12-29T21:21:35.235Z,21.75
2022-12-29T21:24:05.872Z,26.08
2022-12-29T21:26:33.991Z,24.85
2022-12-29T21:29:03.412Z,27.92
2022-12-29T21:31:37.361Z,27.55
2022-12-29T21:34:05.823Z,28.90
2022-12-29T21:36:33.579Z,17.65
2022-12-29T21:39:03.399Z,33.63
2022-12-29T21:41:30.972Z,18.08
2022-12-29T21:44:17.466Z,19.67
2022-12-29T21:46:49.660Z,32.95
2022-12-29T21:49:16.765Z,22.88
2022-12-29T21:51:50.129Z,19.73
2022-12-29T21:54:47.874Z,21.63
2022-12-29T21:57:38.577Z,33.67
2022-12-29T22:00:31.814Z,28.38
2022-12-29T22:03:23.126Z,18.75
2022-12-29T22:06:10.775Z,12.48
2022-12-29T22:08:56.751Z,19.88
2022-12-29T22:11:42.598Z,50.60
2022-12-29T22:14:09.852Z,29.85
2022-12-29T22:16:36.968Z,26.63
2022-12-29T22:19:04.213Z,31.35
2022-12-29T22:21:31.713Z,28.05
2022-12-29T22:23:58.790Z,30.50
2022-12-29T22:26:25.773Z,30.48
2022-12-29T22:28:52.989Z,26.48
2022-12-29T22:31:32.860Z,19.90
2022-12-29T22:34:05.407Z,28.27
2022-12-29T22:36:32.798Z,23.67
2022-12-29T22:39:00.115Z,28.70
2022-12-29T22:41:27.167Z,28.05
2022-12-29T22:43:55.049Z,23.10
2022-12-29T22:46:22.419Z,33.70
2022-12-29T22:48:49.731Z,25.45
2022-12-29T22:51:16.685Z,31.65
2022-12-29T22:53:45.573Z,38.35
2022-12-29T22:56:14.021Z,36.25
2022-12-29T22:58:47.448Z,28.80
2022-12-29T23:01:17.403Z,33.45
2022-12-29T23:03:44.969Z,36.72
2022-12-29T23:06:16.263Z,37.97
2022-12-29T23:08:44.202Z,25.15
2022-12-29T23:11:13.024Z,20.35
2022-12-29T23:13:41.224Z,23.67
2022-12-29T23:16:08.729Z,25.15
2022-12-29T23:18:36.039Z,26.23
2022-12-29T23:21:03.099Z,16.60
2022-12-29T23:23:49.746Z,22.15
2022-12-29T23:26:19.070Z,41.50
2022-12-29T23:28:46.215Z,27.10
2022-12-29T23:31:14.203Z,27.35
2022-12-29T23:33:41.769Z,18.25
2022-12-29T23:36:09.063Z,24.75
2022-12-29T23:38:36.123Z,23.58
2022-12-29T23:41:03.084Z,29.83
2022-12-29T23:43:30.143Z,26.98
2022-12-29T23:45:57.164Z,34.40
2022-12-29T23:48:24.453Z,25.17
2022-12-29T23:50:51.542Z,23.73
2022-12-29T23:53:18.535Z,26.55
2022-12-29T23:55:53.547Z,32.90
2022-12-29T23:58:21.061Z,21.20
